Time;durP1;ratioP1;P1;durP2;ratioP2;P2;SDS_P1;SDS_P2;PMS_P1;PMS_P2;Temp;Humidity;BMP_temperature;BMP_pressure;BME280_temperature;BME280_humidity;BME280_pressure;Samples;Min_cycle;Max_cycle;Signal;HPM_P1;HPM_P2
2023/12/31 00:01:02;;;;;;;8.13;5.10;;;;;;;16.45;46.08;93107.09;5026027;28;20102;-91
2023/12/31 00:03:27;;;;;;;8.02;5.63;;;;;;;16.45;46.62;93109.09;5011455;28;20041;-91
2023/12/31 00:05:52;;;;;;;6.82;5.57;;;;;;;16.44;46.60;93100.19;5030049;28;20033;-90
2023/12/31 00:08:18;;;;;;;6.70;5.13;;;;;;;16.51;46.18;93093.41;5028694;28;20037;-89
2023/12/31 00:10:44;;;;;;;8.02;5.60;;;;;;;16.53;46.24;93090.19;5027455;28;20045;-91
2023/12/31 00:13:09;;;;;;;8.00;5.25;;;;;;;16.54;45.96;93078.03;5028510;28;20029;-90
2023/12/31 00:15:35;;;;;;;7.30;5.32;;;;;;;16.54;46.23;93072.56;5003846;28;20041;-90
2023/12/31 00:18:00;;;;;;;7.35;5.00;;;;;;;16.57;45.96;93072.31;5017545;28;20083;-90
2023/12/31 00:20:26;;;;;;;7.63;5.45;;;;;;;16.51;46.22;93076.31;5028140;28;20049;-91
2023/12/31 00:22:51;;;;;;;8.38;5.88;;;;;;;16.54;45.82;93069.84;5014418;28;20270;-90
2023/12/31 00:25:17;;;;;;;6.28;5.03;;;;;;;16.51;46.38;93066.13;5027837;28;20049;-90
2023/12/31 00:27:42;;;;;;;7.47;5.43;;;;;;;16.52;45.84;93064.16;5012882;28;20037;-92
2023/12/31 00:30:08;;;;;;;6.47;5.00;;;;;;;16.52;45.91;93066.88;5024501;28;20056;-91
2023/12/31 00:32:34;;;;;;;7.30;5.30;;;;;;;16.46;45.90;93056.75;5008121;28;20045;-91
2023/12/31 00:34:59;;;;;;;7.22;5.28;;;;;;;16.42;46.63;93058.28;5009028;28;20045;-91
2023/12/31 00:37:24;;;;;;;7.82;5.60;;;;;;;16.43;46.34;93059.75;5027204;28;20067;-90
2023/12/31 00:39:50;;;;;;;6.68;4.65;;;;;;;16.49;46.09;93054.25;5052821;28;20040;-90
2023/12/31 00:42:16;;;;;;;8.00;4.88;;;;;;;16.55;46.31;93052.22;5016231;28;20040;-89
2023/12/31 00:44:41;;;;;;;6.63;4.85;;;;;;;16.50;45.92;93040.09;5015033;28;20045;-91
2023/12/31 00:47:07;;;;;;;5.32;4.45;;;;;;;16.52;46.07;93045.06;5007609;28;20044;-90
2023/12/31 00:49:32;;;;;;;7.13;5.50;;;;;;;16.54;46.35;93040.56;5017127;28;20033;-90
2023/12/31 00:51:58;;;;;;;6.05;4.95;;;;;;;16.53;46.04;93041.06;5028446;28;20056;-90
2023/12/31 00:54:24;;;;;;;7.00;5.00;;;;;;;16.47;45.98;93046.56;5035577;28;20041;-91
2023/12/31 00:56:49;;;;;;;6.35;4.90;;;;;;;16.53;46.22;93044.53;5029366;28;20037;-91
2023/12/31 00:59:15;;;;;;;7.82;5.20;;;;;;;16.48;46.32;93042.59;5038949;28;20037;-90
2023/12/31 01:01:41;;;;;;;7.22;5.32;;;;;;;16.46;46.24;93043.09;5034363;28;20166;-89
2023/12/31 01:04:06;;;;;;;7.00;4.88;;;;;;;16.51;45.94;93038.84;5027890;28;20080;-91
2023/12/31 01:06:31;;;;;;;6.93;5.40;;;;;;;16.54;45.89;93034.38;5010683;28;20044;-90
2023/12/31 01:08:59;;;;;;;7.15;5.18;;;;;;;16.50;45.87;93026.47;5020605;28;20045;-90
2023/12/31 01:11:25;;;;;;;7.47;5.18;;;;;;;16.57;45.58;93022.44;5006293;28;20361;-91
2023/12/31 01:13:50;;;;;;;7.45;4.82;;;;;;;16.60;46.11;93022.19;5016852;28;20048;-90
2023/12/31 01:16:16;;;;;;;7.53;4.68;;;;;;;16.53;46.01;93027.44;5041516;28;20049;-90
2023/12/31 01:18:42;;;;;;;6.00;4.63;;;;;;;16.60;45.97;93022.19;5039484;28;20048;-90
2023/12/31 01:21:08;;;;;;;6.63;4.65;;;;;;;16.56;45.72;93013.53;5016764;28;20049;-91
2023/12/31 01:23:35;;;;;;;6.53;5.03;;;;;;;16.57;45.86;93027.91;5007096;28;20496;-90
2023/12/31 01:26:00;;;;;;;5.82;4.32;;;;;;;16.54;46.00;93010.56;5032574;28;20071;-90
2023/12/31 01:28:25;;;;;;;6.03;4.72;;;;;;;16.54;46.14;93004.34;5010869;28;20399;-91
2023/12/31 01:30:51;;;;;;;6.43;4.68;;;;;;;16.54;46.00;93009.81;5020768;28;20489;-90
2023/12/31 01:33:16;;;;;;;8.50;5.70;;;;;;;16.57;45.81;93006.06;5043031;28;20464;-90
2023/12/31 01:35:42;;;;;;;6.22;5.15;;;;;;;16.51;45.62;93016.28;5022923;28;20544;-89
2023/12/31 01:38:07;;;;;;;6.50;4.80;;;;;;;16.50;46.23;93012.06;5024753;28;20423;-90
2023/12/31 01:40:33;;;;;;;7.65;4.70;;;;;;;16.52;46.05;93004.13;5027933;28;20037;-90
2023/12/31 01:42:58;;;;;;;6.63;5.20;;;;;;;16.52;45.55;93006.84;5024328;28;20417;-90
2023/12/31 01:45:23;;;;;;;7.32;4.97;;;;;;;16.50;45.62;93001.16;5027420;28;20041;-91
2023/12/31 01:47:49;;;;;;;5.65;4.50;;;;;;;16.49;45.73;92991.50;4991489;28;20044;-90
2023/12/31 01:50:14;;;;;;;5.68;4.40;;;;;;;16.50;45.63;92988.25;5026852;28;20408;-91
2023/12/31 01:52:40;;;;;;;7.13;5.10;;;;;;;16.55;45.93;92982.03;5001591;28;20034;-90
2023/12/31 01:55:06;;;;;;;5.95;4.65;;;;;;;16.48;46.04;92979.09;5012818;28;20504;-91
2023/12/31 01:57:33;;;;;;;6.43;5.00;;;;;;;16.53;45.74;92975.59;5011607;28;20037;-90
2023/12/31 01:59:59;;;;;;;6.43;4.85;;;;;;;16.48;46.40;92965.47;5013379;28;20447;-90
2023/12/31 02:02:25;;;;;;;6.53;4.57;;;;;;;16.55;45.76;92968.38;4988056;28;20041;-90
2023/12/31 02:04:51;;;;;;;6.35;4.43;;;;;;;16.55;45.66;92968.38;4986920;28;20036;-90
2023/12/31 02:07:17;;;;;;;6.25;4.70;;;;;;;16.52;45.73;92958.47;5009849;28;20041;-92
2023/12/31 02:09:43;;;;;;;5.57;4.40;;;;;;;16.54;45.52;92957.97;5018576;28;20048;-90
2023/12/31 02:12:08;;;;;;;6.32;4.75;;;;;;;16.50;45.74;92949.31;5012530;28;20049;-90
2023/12/31 02:14:36;;;;;;;7.07;4.63;;;;;;;16.52;45.98;92955.00;5012516;28;20044;-91
2023/12/31 02:17:01;;;;;;;5.20;4.43;;;;;;;16.51;46.35;92946.09;5012727;28;20051;-90
2023/12/31 02:19:26;;;;;;;6.65;4.65;;;;;;;16.55;46.09;92943.09;5028297;28;20044;-90
2023/12/31 02:21:52;;;;;;;5.85;4.40;;;;;;;16.46;45.65;92946.88;5013770;28;20047;-91
2023/12/31 02:24:19;;;;;;;6.15;4.78;;;;;;;16.45;45.98;92937.94;5027894;28;20037;-91
2023/12/31 02:26:44;;;;;;;4.63;3.88;;;;;;;16.48;45.86;92946.38;5023924;28;20037;-89
2023/12/31 02:29:10;;;;;;;6.25;4.38;;;;;;;16.44;46.35;92933.03;4997327;28;20064;-90
2023/12/31 02:31:35;;;;;;;4.72;4.20;;;;;;;16.45;45.95;92931.78;5008140;28;20056;-92
2023/12/31 02:34:01;;;;;;;6.10;4.88;;;;;;;16.51;45.68;92935.19;5028897;28;20029;-91
2023/12/31 02:36:26;;;;;;;7.00;4.85;;;;;;;16.51;45.74;92934.44;5035678;28;20038;-90
2023/12/31 02:38:52;;;;;;;8.52;4.57;;;;;;;16.53;45.69;92932.69;5032760;28;20037;-90
2023/12/31 02:41:17;;;;;;;7.35;5.07;;;;;;;16.43;46.04;92937.00;5017268;28;20052;-90
2023/12/31 02:43:44;;;;;;;5.90;4.45;;;;;;;16.52;45.74;92931.19;5033759;28;20044;-90
2023/12/31 02:46:09;;;;;;;6.60;4.50;;;;;;;16.49;45.72;92917.84;5017754;28;20482;-90
2023/12/31 02:48:35;;;;;;;5.95;4.50;;;;;;;16.50;45.77;92917.31;5018372;28;20048;-90
2023/12/31 02:51:00;;;;;;;7.28;5.00;;;;;;;16.53;45.69;92912.84;5046046;28;20513;-90
2023/12/31 02:53:26;;;;;;;5.80;4.70;;;;;;;16.43;46.22;92910.47;5031403;28;20839;-90
2023/12/31 02:55:51;;;;;;;5.93;4.15;;;;;;;16.46;46.03;92903.22;5025044;28;20056;-91
2023/12/31 02:58:17;;;;;;;6.35;4.68;;;;;;;16.46;45.76;92901.22;5033502;28;20385;-89
2023/12/31 03:00:42;;;;;;;5.68;4.40;;;;;;;16.45;46.06;92902.47;5025320;28;20059;-92
2023/12/31 03:03:07;;;;;;;6.78;4.65;;;;;;;16.47;46.05;92893.78;5032723;28;20060;-91
2023/12/31 03:05:33;;;;;;;6.70;3.97;;;;;;;16.46;45.77;92895.03;5010718;28;20049;-90
2023/12/31 03:07:59;;;;;;;5.82;4.40;;;;;;;16.43;45.78;92896.81;4996924;28;20057;-92
2023/12/31 03:10:25;;;;;;;6.38;4.85;;;;;;;16.44;45.82;92883.91;5027433;28;20041;-90
2023/12/31 03:12:50;;;;;;;5.82;4.13;;;;;;;16.41;46.02;92885.69;4999466;28;20048;-92
2023/12/31 03:15:15;;;;;;;4.63;3.75;;;;;;;16.48;45.69;92881.63;5038417;28;20041;-90
2023/12/31 03:17:41;;;;;;;5.00;3.72;;;;;;;16.50;45.82;92883.84;5048869;28;20502;-91
2023/12/31 03:20:08;;;;;;;5.72;4.35;;;;;;;16.48;46.23;92884.34;5013907;28;20041;-89
2023/12/31 03:22:33;;;;;;;9.13;4.75;;;;;;;16.49;45.90;92885.09;5041390;28;20050;-91
2023/12/31 03:24:59;;;;;;;5.22;4.10;;;;;;;16.40;46.33;92880.72;5033581;28;20044;-90
2023/12/31 03:27:24;;;;;;;5.68;4.10;;;;;;;16.44;45.79;92870.28;5049373;28;20071;-91
2023/12/31 03:29:50;;;;;;;7.15;4.47;;;;;;;16.51;45.61;92866.22;5038877;28;20098;-91
2023/12/31 03:32:15;;;;;;;5.60;4.03;;;;;;;16.50;45.89;92865.47;5037745;28;20049;-90
2023/12/31 03:34:40;;;;;;;5.70;4.13;;;;;;;16.53;45.96;92861.00;5016721;28;20037;-91
2023/12/31 03:37:06;;;;;;;6.32;4.85;;;;;;;16.50;45.63;92851.84;5029279;28;20044;-89
2023/12/31 03:39:31;;;;;;;5.00;3.80;;;;;;;16.42;45.94;92859.88;5029030;28;20733;-90
2023/12/31 03:41:57;;;;;;;4.78;3.85;;;;;;;16.44;45.89;92859.38;5030425;28;20307;-92
2023/12/31 03:44:22;;;;;;;6.80;4.30;;;;;;;16.41;46.22;92852.94;5026213;28;20041;-90
2023/12/31 03:46:48;;;;;;;8.45;4.50;;;;;;;16.42;45.80;92853.69;5003197;28;20045;-91
2023/12/31 03:49:13;;;;;;;5.72;4.20;;;;;;;16.47;45.57;92858.31;5020789;28;20052;-90
2023/12/31 03:51:38;;;;;;;5.93;4.45;;;;;;;16.49;45.90;92847.63;5017677;28;20498;-90
2023/12/31 03:54:07;;;;;;;4.38;3.60;;;;;;;16.48;45.57;92843.44;5006366;28;20045;-90
2023/12/31 03:56:32;;;;;;;5.25;4.43;;;;;;;16.47;45.66;92844.69;5038586;28;20048;-91
2023/12/31 03:58:58;;;;;;;6.82;4.05;;;;;;;16.48;45.64;92843.44;5019747;28;20032;-90
2023/12/31 04:01:25;;;;;;;5.68;3.65;;;;;;;16.45;45.73;92845.19;5045391;28;20041;-90
2023/12/31 04:03:50;;;;;;;5.45;4.25;;;;;;;16.41;46.26;92844.00;5033351;28;20095;-90
2023/12/31 04:06:15;;;;;;;4.97;4.15;;;;;;;16.44;45.66;92841.00;5048437;28;20048;-91
2023/12/31 04:08:41;;;;;;;5.95;4.00;;;;;;;16.51;45.81;92838.94;5040667;28;20028;-91
2023/12/31 04:11:06;;;;;;;7.20;4.38;;;;;;;16.48;45.75;92835.25;5032773;28;20483;-90
2023/12/31 04:13:32;;;;;;;5.05;4.00;;;;;;;16.48;45.52;92832.50;5009168;28;20510;-90
2023/12/31 04:15:57;;;;;;;5.38;3.92;;;;;;;16.54;45.28;92824.28;5021310;28;20040;-91
2023/12/31 04:18:23;;;;;;;6.05;4.32;;;;;;;16.44;46.01;92832.81;4995920;28;20060;-90
2023/12/31 04:20:48;;;;;;;5.85;4.28;;;;;;;16.53;45.67;92828.25;5044331;28;20056;-91
2023/12/31 04:23:14;;;;;;;5.40;4.00;;;;;;;16.51;45.53;92834.22;5002039;28;20115;-90
2023/12/31 04:25:39;;;;;;;5.57;4.28;;;;;;;16.51;45.69;92838.94;5037781;28;20041;-90
2023/12/31 04:28:05;;;;;;;5.90;4.10;;;;;;;16.48;45.58;92829.06;5008039;28;20049;-92
2023/12/31 04:30:30;;;;;;;5.57;4.25;;;;;;;16.49;45.64;92833.25;4991312;28;20111;-90
2023/12/31 04:32:56;;;;;;;5.60;3.92;;;;;;;16.50;45.52;92832.00;5029690;28;20056;-91
2023/12/31 04:35:21;;;;;;;5.95;4.10;;;;;;;16.49;45.76;92823.09;5039699;28;20045;-91
2023/12/31 04:37:46;;;;;;;4.70;3.60;;;;;;;16.48;45.52;92824.34;5028610;28;20033;-92
2023/12/31 04:40:12;;;;;;;6.18;4.40;;;;;;;16.44;45.65;92816.47;5009729;28;20041;-91
2023/12/31 04:42:37;;;;;;;5.25;3.85;;;;;;;16.48;45.86;92818.88;5034814;28;20052;-90
2023/12/31 04:45:07;;;;;;;4.53;3.65;;;;;;;16.34;45.84;92820.03;5038996;28;20033;-90
2023/12/31 04:47:34;;;;;;;4.97;3.53;;;;;;;16.38;45.97;92806.84;5008723;28;20041;-91
2023/12/31 04:50:00;;;;;;;5.97;3.92;;;;;;;16.44;45.68;92815.72;5020894;28;20044;-91
2023/12/31 04:52:25;;;;;;;5.63;3.95;;;;;;;16.49;45.43;92814.91;5030859;28;20037;-91
2023/12/31 04:54:51;;;;;;;5.70;4.07;;;;;;;16.49;45.36;92797.78;5008412;28;20353;-91
2023/12/31 04:57:16;;;;;;;5.22;4.13;;;;;;;16.41;45.99;92801.09;5008330;28;20064;-90
2023/12/31 04:59:42;;;;;;;5.35;3.80;;;;;;;16.46;45.73;92808.47;5033641;28;20357;-89
2023/12/31 05:02:07;;;;;;;5.57;3.95;;;;;;;16.51;45.64;92814.38;5037674;28;20037;-91
2023/12/31 05:04:33;;;;;;;5.40;3.60;;;;;;;16.45;45.78;92811.75;4991927;28;20497;-90
2023/12/31 05:06:58;;;;;;;5.60;3.70;;;;;;;16.43;45.74;92806.06;5010653;28;20092;-90
2023/12/31 05:09:24;;;;;;;4.93;3.60;;;;;;;16.50;45.57;92802.00;5011088;28;20029;-91
2023/12/31 05:11:49;;;;;;;5.82;4.45;;;;;;;16.45;45.40;92807.00;5007670;28;20041;-90
2023/12/31 05:14:15;;;;;;;4.82;3.88;;;;;;;16.44;46.14;92800.09;4993056;28;20515;-90
2023/12/31 05:16:40;;;;;;;6.40;3.50;;;;;;;16.48;45.71;92799.03;5030482;28;20462;-91
2023/12/31 05:19:06;;;;;;;4.45;3.80;;;;;;;16.44;45.83;92788.44;5023545;28;20414;-90
2023/12/31 05:21:31;;;;;;;5.05;3.80;;;;;;;16.44;45.80;92788.44;5021351;28;20041;-90
2023/12/31 05:23:56;;;;;;;4.95;3.60;;;;;;;16.46;45.63;92777.72;5016114;28;20500;-90
2023/12/31 05:26:22;;;;;;;6.20;4.03;;;;;;;16.42;45.56;92780.03;4999477;28;20048;-91
2023/12/31 05:28:47;;;;;;;5.22;3.70;;;;;;;16.44;45.46;92772.06;5008186;28;20412;-91
2023/12/31 05:31:13;;;;;;;4.93;3.67;;;;;;;16.50;45.44;92766.53;5016408;28;20048;-91
2023/12/31 05:33:38;;;;;;;4.75;3.45;;;;;;;16.45;45.34;92768.81;5007861;28;20045;-90
2023/12/31 05:36:04;;;;;;;6.53;4.03;;;;;;;16.46;45.46;92767.56;5003643;28;20042;-90
2023/12/31 05:38:29;;;;;;;4.75;3.65;;;;;;;16.46;45.93;92761.34;5015915;28;20042;-90
2023/12/31 05:40:55;;;;;;;3.97;3.53;;;;;;;16.48;45.51;92760.84;5007221;28;20041;-90
2023/12/31 05:43:20;;;;;;;6.68;4.05;;;;;;;16.41;45.67;92759.44;5016315;28;20049;-90
2023/12/31 05:45:46;;;;;;;4.60;3.55;;;;;;;16.45;45.18;92754.44;5010340;28;20140;-90
2023/12/31 05:48:12;;;;;;;4.70;3.63;;;;;;;16.44;45.55;92758.44;5019975;28;20304;-90
2023/12/31 05:50:38;;;;;;;5.13;3.55;;;;;;;16.48;45.63;92756.13;5015330;28;20045;-90
2023/12/31 05:53:03;;;;;;;6.70;4.25;;;;;;;16.45;45.51;92754.44;5020194;28;20087;-90
2023/12/31 05:55:28;;;;;;;4.32;3.40;;;;;;;16.40;45.92;92761.44;5026984;28;20052;-90
2023/12/31 05:57:55;;;;;;;4.38;3.50;;;;;;;16.42;45.72;92752.75;5011078;28;20503;-90
2023/12/31 06:00:21;;;;;;;4.93;3.35;;;;;;;16.44;45.40;92759.16;5027070;28;20055;-91
2023/12/31 06:02:46;;;;;;;4.05;3.30;;;;;;;16.47;45.39;92746.47;5010550;28;20444;-90
2023/12/31 06:05:13;;;;;;;5.28;3.70;;;;;;;16.44;45.53;92748.25;5014810;28;20080;-90
2023/12/31 06:07:38;;;;;;;5.20;3.97;;;;;;;16.44;45.61;92740.06;5002819;28;20042;-90
2023/12/31 06:10:04;;;;;;;4.88;3.85;;;;;;;16.50;45.67;92744.69;5021168;28;20092;-89
2023/12/31 06:12:31;;;;;;;4.55;3.42;;;;;;;16.50;45.57;92748.16;5010034;28;20052;-90
2023/12/31 06:14:59;;;;;;;5.25;3.83;;;;;;;16.51;45.26;92738.72;5031587;28;20128;-90
2023/12/31 06:17:25;;;;;;;4.25;3.30;;;;;;;16.51;45.23;92744.19;5026654;28;20041;-90
2023/12/31 06:19:50;;;;;;;5.05;3.70;;;;;;;16.53;45.47;92736.22;5011459;28;20098;-90
2023/12/31 06:22:16;;;;;;;4.25;3.60;;;;;;;16.45;45.90;92732.63;5043371;28;20043;-90
2023/12/31 06:24:41;;;;;;;6.63;3.83;;;;;;;16.42;45.18;92726.22;5023970;28;20033;-92
2023/12/31 06:27:07;;;;;;;4.38;3.60;;;;;;;16.49;45.68;92721.41;4999264;28;20455;-90
2023/12/31 06:29:33;;;;;;;4.97;3.95;;;;;;;16.47;45.34;92719.19;4991312;28;20041;-90
2023/12/31 06:31:58;;;;;;;4.70;3.55;;;;;;;16.44;45.65;92712.06;5013687;28;20048;-91
2023/12/31 06:34:24;;;;;;;4.75;3.60;;;;;;;16.51;45.49;92716.91;5007019;28;20029;-89
2023/12/31 06:36:50;;;;;;;5.63;3.65;;;;;;;16.43;45.54;92718.75;5023404;28;20049;-89
2023/12/31 06:39:16;;;;;;;5.07;3.58;;;;;;;16.44;45.67;92718.25;5026885;28;20049;-90
2023/12/31 06:41:41;;;;;;;5.53;3.38;;;;;;;16.42;45.56;92711.81;5007427;28;20156;-90
2023/12/31 06:44:07;;;;;;;5.53;3.30;;;;;;;16.40;45.16;92712.34;5021340;28;20048;-91
2023/12/31 06:46:32;;;;;;;4.93;3.47;;;;;;;16.43;45.95;92711.31;5010872;28;20200;-90
2023/12/31 06:48:58;;;;;;;5.78;3.90;;;;;;;16.49;45.25;92707.75;5030503;28;20403;-90
2023/12/31 06:51:23;;;;;;;4.20;3.08;;;;;;;16.50;45.25;92701.78;5032363;28;20033;-90
2023/12/31 06:53:49;;;;;;;4.03;3.30;;;;;;;16.40;45.63;92709.63;5009517;28;20041;-89
2023/12/31 06:56:17;;;;;;;5.55;3.90;;;;;;;16.49;45.45;92702.31;5022978;28;20041;-89
2023/12/31 06:58:42;;;;;;;4.68;3.42;;;;;;;16.44;45.51;92698.41;5036995;28;20061;-90
2023/12/31 07:01:08;;;;;;;4.93;3.80;;;;;;;16.44;45.26;92703.88;5005009;28;20029;-90
2023/12/31 07:03:34;;;;;;;5.32;3.47;;;;;;;16.48;45.18;92704.28;5030019;28;20038;-92
2023/12/31 07:06:00;;;;;;;4.97;3.47;;;;;;;16.49;45.43;92692.13;5039460;28;20648;-91
2023/12/31 07:08:25;;;;;;;5.13;3.55;;;;;;;16.40;45.34;92689.78;5016319;28;20045;-91
2023/12/31 07:10:52;;;;;;;5.05;3.75;;;;;;;16.44;45.53;92687.50;4997135;28;20043;-90
2023/12/31 07:13:17;;;;;;;4.88;3.30;;;;;;;16.43;45.05;92686.75;5017448;28;20041;-90
2023/12/31 07:15:43;;;;;;;4.32;3.28;;;;;;;16.41;45.15;92672.91;5010784;28;20392;-90
2023/12/31 07:18:08;;;;;;;5.38;3.42;;;;;;;16.41;45.43;92677.63;5016382;28;20046;-90
2023/12/31 07:20:36;;;;;;;3.88;3.22;;;;;;;16.44;45.32;92682.03;5033982;28;20053;-91
2023/12/31 07:23:03;;;;;;;4.32;3.10;;;;;;;16.42;45.42;92671.66;5005832;28;20068;-90
2023/12/31 07:25:30;;;;;;;4.20;3.33;;;;;;;16.43;45.52;92673.13;5029526;28;20120;-91
2023/12/31 07:27:56;;;;;;;4.22;3.08;;;;;;;16.41;45.23;92667.44;5029835;28;20620;-90
2023/12/31 07:30:21;;;;;;;4.20;3.38;;;;;;;16.39;45.66;92659.03;4994542;28;20041;-91
2023/12/31 07:32:47;;;;;;;5.53;3.47;;;;;;;16.42;45.30;92646.38;5018908;28;20491;-90
2023/12/31 07:35:14;;;;;;;4.53;3.30;;;;;;;16.45;45.61;92650.78;5043722;28;20083;-90
2023/12/31 07:37:39;;;;;;;4.28;3.08;;;;;;;16.41;45.32;92650.34;5046621;28;20052;-89
2023/12/31 07:40:08;;;;;;;5.20;3.45;;;;;;;16.39;45.35;92644.66;5033144;28;20032;-90
2023/12/31 07:42:34;;;;;;;6.35;3.33;;;;;;;16.39;45.58;92639.94;5016381;28;20076;-91
2023/12/31 07:45:00;;;;;;;4.85;3.38;;;;;;;16.50;45.49;92636.31;4993782;28;20080;-90
2023/12/31 07:47:25;;;;;;;4.50;3.42;;;;;;;16.46;45.47;92641.31;5008742;28;20057;-91
2023/12/31 07:49:51;;;;;;;4.38;3.08;;;;;;;16.49;45.25;92640.28;5031620;28;20037;-91
2023/12/31 07:52:16;;;;;;;4.05;3.28;;;;;;;16.43;45.25;92645.84;5025892;28;20454;-91
2023/12/31 07:54:42;;;;;;;4.13;3.17;;;;;;;16.43;45.18;92648.56;5016057;28;20045;-91
2023/12/31 07:57:07;;;;;;;5.75;3.75;;;;;;;16.43;45.09;92651.31;5028308;28;20116;-91
2023/12/31 07:59:35;;;;;;;4.82;3.85;;;;;;;16.45;45.18;92648.06;5028908;28;20475;-90
2023/12/31 08:02:00;;;;;;;3.55;3.15;;;;;;;16.43;45.41;92654.03;5018023;28;20049;-89
2023/12/31 08:04:26;;;;;;;3.63;3.15;;;;;;;16.51;45.02;92648.69;5007589;28;20041;-89
2023/12/31 08:06:51;;;;;;;4.45;3.67;;;;;;;16.48;44.91;92655.19;5015807;28;20044;-90
2023/12/31 08:09:17;;;;;;;4.45;3.17;;;;;;;16.45;45.12;92645.34;5024611;28;20045;-89
2023/12/31 08:11:42;;;;;;;4.20;2.92;;;;;;;16.49;45.49;92653.19;5011280;28;20053;-90
2023/12/31 08:14:08;;;;;;;4.25;3.40;;;;;;;16.52;45.23;92652.16;5023680;28;20036;-90
2023/12/31 08:16:33;;;;;;;4.57;3.33;;;;;;;16.44;45.20;92649.31;5028840;28;20052;-90
2023/12/31 08:18:58;;;;;;;4.22;3.22;;;;;;;16.46;44.62;92650.25;5053072;28;20049;-91
2023/12/31 08:21:24;;;;;;;3.92;3.05;;;;;;;16.49;45.11;92648.47;5007876;28;20034;-90
2023/12/31 08:23:49;;;;;;;4.75;3.15;;;;;;;16.49;45.36;92653.19;5016608;28;20072;-89
2023/12/31 08:26:15;;;;;;;3.22;2.90;;;;;;;16.52;45.34;92654.91;5001606;28;20094;-89
2023/12/31 08:28:40;;;;;;;4.55;3.40;;;;;;;16.54;45.01;92644.22;5038856;28;20041;-91
2023/12/31 08:31:14;;;;;;;4.07;3.42;;;;;;;16.56;44.94;92644.44;5031127;28;20047;-89
2023/12/31 08:33:39;;;;;;;4.80;3.17;;;;;;;16.55;44.88;92649.16;5014718;28;20041;-90
2023/12/31 08:36:05;;;;;;;3.10;2.80;;;;;;;16.55;45.13;92646.41;5035337;28;20082;-90
2023/12/31 08:38:31;;;;;;;4.97;3.22;;;;;;;16.58;45.11;92652.84;5021077;28;20404;-89
2023/12/31 08:40:57;;;;;;;3.47;3.00;;;;;;;16.53;45.35;92657.09;5023731;28;20076;-89
2023/12/31 08:43:23;;;;;;;4.03;2.90;;;;;;;16.59;45.22;92646.88;5007681;28;20042;-90
2023/12/31 08:45:48;;;;;;;4.32;3.15;;;;;;;16.56;45.20;92645.16;5016826;28;20040;-89
2023/12/31 08:48:13;;;;;;;4.00;3.15;;;;;;;16.56;45.10;92656.09;5011855;28;20041;-90
2023/12/31 08:50:39;;;;;;;3.50;2.83;;;;;;;16.55;45.15;92662.06;5005779;28;20037;-90
2023/12/31 08:53:05;;;;;;;4.10;3.20;;;;;;;16.52;45.35;92650.19;5028842;28;20045;-90
2023/12/31 08:55:30;;;;;;;4.68;3.42;;;;;;;16.59;45.28;92660.50;5012225;28;20032;-90
2023/12/31 08:57:56;;;;;;;4.00;3.03;;;;;;;16.59;44.91;92657.78;5013752;28;20049;-90
2023/12/31 09:00:21;;;;;;;4.45;3.10;;;;;;;16.51;45.51;92662.34;4997226;28;20037;-90
2023/12/31 09:02:47;;;;;;;3.63;3.00;;;;;;;16.58;45.07;92661.03;5027783;28;20041;-90
2023/12/31 09:05:12;;;;;;;4.10;3.05;;;;;;;16.61;45.15;92654.53;5011009;28;20048;-90
2023/12/31 09:07:39;;;;;;;6.38;3.33;;;;;;;16.55;45.13;92660.06;5009585;28;20084;-91
2023/12/31 09:10:06;;;;;;;3.83;3.13;;;;;;;16.52;45.06;92663.09;5010516;28;20045;-91
2023/12/31 09:12:31;;;;;;;4.53;3.38;;;;;;;16.53;45.15;92661.84;5016618;28;20052;-89
2023/12/31 09:14:57;;;;;;;4.07;3.15;;;;;;;16.56;45.29;92663.53;5012594;28;20041;-89
2023/12/31 09:17:22;;;;;;;3.58;2.80;;;;;;;16.57;44.99;92657.56;5021999;28;20049;-91
2023/12/31 09:19:48;;;;;;;4.32;3.15;;;;;;;16.63;45.22;92658.25;5014051;28;20041;-90
2023/12/31 09:22:13;;;;;;;5.18;3.00;;;;;;;16.63;44.97;92650.06;5027096;28;20049;-90
2023/12/31 09:24:39;;;;;;;3.97;2.97;;;;;;;16.63;45.20;92652.03;5029381;28;20056;-89
2023/12/31 09:27:07;;;;;;;4.03;3.17;;;;;;;16.63;45.22;92654.75;5013278;28;20050;-90
2023/12/31 09:29:33;;;;;;;4.03;3.25;;;;;;;16.62;45.10;92648.56;5024894;28;20037;-89
2023/12/31 09:31:59;;;;;;;4.88;3.50;;;;;;;16.57;45.60;92652.09;5011180;28;20766;-90
2023/12/31 09:34:24;;;;;;;4.90;3.22;;;;;;;16.65;44.87;92644.09;5003263;28;20395;-90
2023/12/31 09:36:50;;;;;;;3.58;2.67;;;;;;;16.66;44.94;92638.13;5007402;28;20049;-91
2023/12/31 09:39:16;;;;;;;3.80;2.78;;;;;;;16.64;45.22;92646.09;5010375;28;20045;-91
2023/12/31 09:41:42;;;;;;;4.38;3.05;;;;;;;16.63;44.97;92641.13;5042370;28;20041;-90
2023/12/31 09:44:07;;;;;;;3.67;2.88;;;;;;;16.63;45.00;92639.16;5023548;28;20045;-90
2023/12/31 09:46:34;;;;;;;4.85;3.42;;;;;;;16.61;44.89;92632.72;5011795;28;20482;-91
2023/12/31 09:49:01;;;;;;;3.60;3.10;;;;;;;16.68;44.75;92634.84;5023972;28;20570;-90
2023/12/31 09:51:27;;;;;;;4.30;3.17;;;;;;;16.64;44.88;92637.16;5018746;28;20848;-89
2023/12/31 09:53:58;;;;;;;3.70;2.92;;;;;;;16.64;44.87;92628.97;5017915;28;20400;-90
2023/12/31 09:56:23;;;;;;;5.43;3.75;;;;;;;16.63;45.17;92619.28;5045701;28;20075;-91
2023/12/31 09:58:52;;;;;;;4.10;3.17;;;;;;;16.71;45.22;92617.44;5045311;28;20460;-91
2023/12/31 10:01:20;;;;;;;4.32;2.97;;;;;;;16.62;45.13;92609.63;5015203;28;20030;-90
2023/12/31 10:03:46;;;;;;;5.10;4.07;;;;;;;16.72;44.84;92595.09;5016065;28;20041;-92
2023/12/31 10:06:11;;;;;;;6.00;4.80;;;;;;;16.65;45.07;92601.16;5006448;28;20148;-91
2023/12/31 10:08:40;;;;;;;5.80;4.18;;;;;;;16.66;45.34;92599.19;5030920;28;20037;-91
2023/12/31 10:11:06;;;;;;;4.65;3.70;;;;;;;16.73;45.27;92602.03;5041160;28;20090;-91
2023/12/31 10:13:31;;;;;;;6.00;4.00;;;;;;;16.66;45.04;92585.53;5000591;28;20454;-91
2023/12/31 10:15:57;;;;;;;8.52;5.47;;;;;;;16.66;45.16;92593.72;5028191;28;20041;-91
2023/12/31 10:18:25;;;;;;;8.70;5.35;;;;;;;16.67;45.35;92589.75;5041713;28;20117;-89
2023/12/31 10:20:52;;;;;;;3.47;2.97;;;;;;;16.61;45.35;92584.34;5008649;28;20041;-90
2023/12/31 10:23:17;;;;;;;5.53;3.80;;;;;;;16.65;45.13;92582.06;5006244;28;20045;-92
2023/12/31 10:25:43;;;;;;;6.20;4.20;;;;;;;16.71;44.92;92579.22;5035938;28;20060;-91
2023/12/31 10:28:08;;;;;;;7.13;4.60;;;;;;;16.71;45.22;92569.06;5023752;28;20037;-91
2023/12/31 10:30:37;;;;;;;7.68;5.32;;;;;;;16.70;45.52;92577.75;5001435;28;20033;-91
2023/12/31 10:33:10;;;;;;;9.70;6.88;;;;;;;16.71;45.35;92569.06;5020049;28;20087;-90
2023/12/31 10:35:35;;;;;;;11.13;6.80;;;;;;;16.75;45.37;92571.50;5023353;28;20273;-91
2023/12/31 10:38:04;;;;;;;7.05;4.93;;;;;;;16.68;45.34;92567.38;5030940;28;20046;-90
2023/12/31 10:40:31;;;;;;;15.23;7.45;;;;;;;16.73;45.11;92555.63;5019192;28;20052;-91
2023/12/31 10:42:56;;;;;;;18.42;6.28;;;;;;;16.68;45.59;92564.63;5020454;28;20084;-91
2023/12/31 10:45:22;;;;;;;9.90;5.32;;;;;;;16.68;45.50;92561.91;5024978;28;20053;-90
2023/12/31 10:47:53;;;;;;;6.88;3.75;;;;;;;16.61;45.39;92559.78;5045954;28;20059;-90
2023/12/31 10:50:23;;;;;;;11.23;6.30;;;;;;;16.65;45.29;92556.78;5016530;28;20054;-89
2023/12/31 10:52:53;;;;;;;10.57;4.55;;;;;;;16.63;45.49;92551.06;5025609;28;20060;-90
2023/12/31 10:55:21;;;;;;;9.82;4.70;;;;;;;16.67;45.68;92549.53;5027166;28;20040;-91
2023/12/31 10:57:46;;;;;;;12.18;7.55;;;;;;;16.72;45.57;92545.97;5015906;28;20044;-92
2023/12/31 11:00:13;;;;;;;10.30;7.38;;;;;;;16.75;45.92;92530.56;5029176;28;20593;-90
2023/12/31 11:02:39;;;;;;;7.00;4.93;;;;;;;16.71;45.58;92532.84;5028508;28;20131;-90
2023/12/31 11:05:04;;;;;;;15.38;7.45;;;;;;;16.72;45.45;92529.59;5011465;28;20041;-91
2023/12/31 11:07:30;;;;;;;21.02;11.90;;;;;;;16.73;45.91;92533.78;5012434;28;20543;-91
2023/12/31 11:09:57;;;;;;;14.38;8.30;;;;;;;16.76;45.62;92521.84;5045278;28;20407;-91
2023/12/31 11:12:22;;;;;;;11.10;8.05;;;;;;;16.82;45.62;92518.28;5045424;28;20426;-90
2023/12/31 11:14:56;;;;;;;10.60;6.63;;;;;;;16.68;45.31;92514.78;5027657;28;20040;-91
2023/12/31 11:17:58;;;;;;;15.95;10.23;;;;;;;16.68;45.92;92504.59;5027445;28;20051;-90
2023/12/31 11:20:44;;;;;;;8.98;5.18;;;;;;;16.68;45.32;92493.69;5046436;28;20044;-91
2023/12/31 11:23:50;;;;;;;11.15;6.57;;;;;;;16.70;45.19;92491.16;5021888;28;20264;-90
2023/12/31 11:26:17;;;;;;;17.80;10.00;;;;;;;16.75;45.71;92486.88;5041388;28;20041;-91